Star Princess — ZCDD6 — position and weather

sailwx.info

Track history (hours):
 
Tides and Currents Weather Stations Pressure Air Temp Water Temp Dewpoint Dewpoint Depression Visibility Wind Speed Wind Dir Waves Ship Positions

Star Princess

Operator: Princess Cruises

Last reported at 2017-Jun-23 09:00 UTC. Time now 2017-Jun-24 13:49 UTC.
Position N 58°48' W 140°12'.

Length 289.6 m; beam 36 m; draft 8.4 m.

Type: Ship. MMSI: 310361000.

Wind from 140 at 18 knots

Barometer 1034.1 mb
Air temperature 12.4 ° C
Visibility: greater than 5.4 NM
Dewpoint 8.4 ° C
Water temperature 13.4 ° C

Date/timePositionNaut miles runAvg speedWind from/ knotsBaromVisibWave heightAir tempDewpointWater temp
2017-Jun-23 09:00N 58°48' W 140°12'33 1.3 140 / 181034.1 5.4 12.4 8.413.4
2017-Jun-22 07:00N 59°00' W 139°12'155 6.4 340 / 371029.1 5.4 13.2 9.312.4
2017-Jun-21 07:00N 58°12' W 134°30'108 4.5 070 / 201020.7 5.4 11.2 7.010.4
2017-Jun-20 07:00N 56°24' W 134°24'317 9.2 170 / 321014.4 2.2 10.2 8.8 9.5
2017-Jun-18 20:32N 52°02' W 129°19'013.3
2017-Jun-18 20:30N 52°01' W 129°19'714.2
2017-Jun-18 20:00N 51°56' W 129°12'918.5
2017-Jun-18 19:31N 51°48' W 129°03'918.5
2017-Jun-18 19:00N 51°41' W 128°54'918.4
2017-Jun-18 18:31N 51°33' W 128°45'917.6
2017-Jun-18 18:00N 51°26' W 128°37'12805.2
2017-Jun-18 18:00N 51°36' W 128°48'1939.3 100 / 251019.4 5.4 13.211.913.5
2017-Jun-18 17:31N 51°21' W 128°30'714.0
2017-Jun-18 17:00N 51°15' W 128°23'714.2
2017-Jun-18 16:30N 51°10' W 128°15'3614.3
2017-Jun-18 14:00N 50°48' W 127°30'7016.0 070 / 351018.2 5.4 12.2 8.811.5
2017-Jun-18 09:36N 50°22' W 125°47'616.1
2017-Jun-18 09:14N 50°22' W 125°38'415.1
2017-Jun-18 08:59N 50°21' W 125°32'714.3
2017-Jun-18 08:29N 50°16' W 125°24'815.8
2017-Jun-18 08:00N 50°09' W 125°21'612.6
2017-Jun-18 07:30N 50°04' W 125°15'714.3
2017-Jun-18 06:59N 49°58' W 125°09'714.6
2017-Jun-18 06:30N 49°53' W 125°01'715.0
2017-Jun-18 06:00N 49°48' W 124°52'3164.1
2017-Jun-18 06:00N 49°48' W 124°48'612.0 110 / 281022.2 5.4 14.2 8.714.0
2017-Jun-18 05:30N 49°43' W 124°43'815.8
2017-Jun-18 05:00N 49°39' W 124°33'917.0
2017-Jun-18 04:29N 49°34' W 124°21'1317.1
2017-Jun-18 03:42N 49°27' W 124°04'417.2
2017-Jun-18 03:29N 49°26' W 123°58'917.6
2017-Jun-18 03:00N 49°23' W 123°46'83244.9
2017-Jun-18 03:00N 49°18' W 123°36'3 6.6 100 / 231019.2 5.4 14.2 8.716.0
2017-Jun-18 02:30N 49°21' W 123°33'917.3
2017-Jun-18 02:00N 49°19' W 123°20'815.4
2017-Jun-18 01:31N 49°19' W 123°08'2 3.4
2017-Jun-18 00:59N 49°17' W 123°06'0 0.0
2017-Jun-18 00:29N 49°17' W 123°06'0 0.0
2017-Jun-17 23:59N 49°17' W 123°06'0 0.0
2017-Jun-17 23:28N 49°17' W 123°06'0 0.0
2017-Jun-17 22:58N 49°17' W 123°06'0 0.0
2017-Jun-17 22:28N 49°17' W 123°06'0 0.0
2017-Jun-17 21:58N 49°17' W 123°06'0 0.0
2017-Jun-17 21:27N 49°17' W 123°06'0 0.0
2017-Jun-17 21:00N 49°17' W 123°06'0 0.0
2017-Jun-17 20:30N 49°17' W 123°06'0 0.0
2017-Jun-17 20:00N 49°17' W 123°06'0 0.0
2017-Jun-17 19:30N 49°17' W 123°06'0 0.0
2017-Jun-17 18:59N 49°17' W 123°06'0 0.0
2017-Jun-17 18:29N 49°17' W 123°06'0 0.0
2017-Jun-17 17:59N 49°17' W 123°06'0 0.0
2017-Jun-17 17:29N 49°17' W 123°06'0 0.0
2017-Jun-17 16:59N 49°17' W 123°06'0 0.0
2017-Jun-17 16:28N 49°17' W 123°06'0 0.0
2017-Jun-17 15:58N 49°17' W 123°06'0 0.0
2017-Jun-17 15:29N 49°17' W 123°06'0 0.0
2017-Jun-17 14:58N 49°17' W 123°06'0 0.0
2017-Jun-17 14:30N 49°17' W 123°06'0 0.2
2017-Jun-17 13:30N 49°17' W 123°06'2 3.2
2017-Jun-17 13:00N 49°19' W 123°08'611.2
2017-Jun-17 12:30N 49°19' W 123°16'714.4
2017-Jun-17 12:00N 49°19' W 123°27'714.5
2017-Jun-17 11:30N 49°21' W 123°38'714.5
2017-Jun-17 11:00N 49°24' W 123°48'714.3
2017-Jun-17 10:30N 49°26' W 123°59'1315.0
2017-Jun-17 09:37N 49°32' W 124°17'216.6
2017-Jun-17 09:30N 49°33' W 124°20'816.9
2017-Jun-17 09:00N 49°38' W 124°31'917.1
2017-Jun-17 08:30N 49°42' W 124°42'817.2
2017-Jun-17 08:00N 49°48' W 124°52'918.4
2017-Jun-17 07:30N 49°54' W 125°03'917.2
2017-Jun-17 07:00N 49°60' W 125°12'816.5
2017-Jun-17 06:31N 50°07' W 125°19'510.6
2017-Jun-17 06:00N 50°12' W 125°22'611.8
2017-Jun-17 05:30N 50°17' W 125°25'611.3
2017-Jun-17 05:00N 50°21' W 125°32'11113.3
2017-Jun-16 20:40N 51°09' W 128°10'212.5
2017-Jun-16 20:30N 51°10' W 128°13'613.0
2017-Jun-16 20:00N 51°13' W 128°21'713.7
2017-Jun-16 19:30N 51°19' W 128°28'714.3
2017-Jun-16 19:00N 51°24' W 128°35'714.1
2017-Jun-16 18:30N 51°30' W 128°42'713.7
2017-Jun-16 18:00N 51°36' W 128°48'713.8
2017-Jun-16 17:30N 51°41' W 128°55'713.9
2017-Jun-16 17:00N 51°47' W 129°01'713.7
2017-Jun-16 16:30N 51°52' W 129°08'713.5
2017-Jun-16 16:00N 51°58' W 129°14'713.7
2017-Jun-16 15:30N 52°03' W 129°21'813.9
2017-Jun-16 14:56N 52°10' W 129°28'12324.9
2017-Jun-16 10:00N 54°00' W 131°00'6611.0 040 / 341006.6 2.2 10.8 7.011.0
2017-Jun-16 04:00N 55°06' W 131°06'42 3.2 340 / 221003.6 2.2 11.810.212.0
2017-Jun-15 15:00N 55°30' W 132°06'9111.4 270 / 311003.6 5.4 8.6 6.2 8.0
2017-Jun-15 07:00N 56°18' W 134°24'7625.2 340 / 261010.7 5.4 18.2-22.1 9.0
2017-Jun-15 04:00N 57°30' W 133°42'102 4.8 020 / 271017.8 5.4 12.2 7.712.0
2017-Jun-14 07:00N 59°00' W 135°12'   340 / 171014.910.8 10.8 7.711.0
Track history (hours):
 
Tides and Currents Weather Stations Pressure Air Temp Water Temp Dewpoint Dewpoint Depression Visibility Wind Speed Wind Dir Waves Ship Positions

Star Princess

Operator: Princess Cruises

Last reported at 2017-Jun-23 09:00 UTC. Time now 2017-Jun-24 13:49 UTC.
Position N 58°48' W 140°12'.

Length 289.6 m; beam 36 m; draft 8.4 m.

Type: Ship. MMSI: 310361000.

Wind from 140 at 18 knots

Barometer 1034.1 mb
Air temperature 12.4 ° C
Visibility: greater than 5.4 NM
Dewpoint 8.4 ° C
Water temperature 13.4 ° C

Date/timePositionNaut miles runAvg speedWind from/ knotsBaromVisibWave heightAir tempDewpointWater temp
2017-Jun-23 09:00N 58°48' W 140°12'33 1.3 140 / 181034.1 5.4 12.4 8.413.4
2017-Jun-22 07:00N 59°00' W 139°12'155 6.4 340 / 371029.1 5.4 13.2 9.312.4
2017-Jun-21 07:00N 58°12' W 134°30'108 4.5 070 / 201020.7 5.4 11.2 7.010.4
2017-Jun-20 07:00N 56°24' W 134°24'317 9.2 170 / 321014.4 2.2 10.2 8.8 9.5
2017-Jun-18 20:32N 52°02' W 129°19'013.3
2017-Jun-18 20:30N 52°01' W 129°19'714.2
2017-Jun-18 20:00N 51°56' W 129°12'918.5
2017-Jun-18 19:31N 51°48' W 129°03'918.5
2017-Jun-18 19:00N 51°41' W 128°54'918.4
2017-Jun-18 18:31N 51°33' W 128°45'917.6
2017-Jun-18 18:00N 51°26' W 128°37'12805.2
2017-Jun-18 18:00N 51°36' W 128°48'1939.3 100 / 251019.4 5.4 13.211.913.5
2017-Jun-18 17:31N 51°21' W 128°30'714.0
2017-Jun-18 17:00N 51°15' W 128°23'714.2
2017-Jun-18 16:30N 51°10' W 128°15'3614.3
2017-Jun-18 14:00N 50°48' W 127°30'7016.0 070 / 351018.2 5.4 12.2 8.811.5
2017-Jun-18 09:36N 50°22' W 125°47'616.1
2017-Jun-18 09:14N 50°22' W 125°38'415.1
2017-Jun-18 08:59N 50°21' W 125°32'714.3
2017-Jun-18 08:29N 50°16' W 125°24'815.8
2017-Jun-18 08:00N 50°09' W 125°21'612.6
2017-Jun-18 07:30N 50°04' W 125°15'714.3
2017-Jun-18 06:59N 49°58' W 125°09'714.6
2017-Jun-18 06:30N 49°53' W 125°01'715.0
2017-Jun-18 06:00N 49°48' W 124°52'3164.1
2017-Jun-18 06:00N 49°48' W 124°48'612.0 110 / 281022.2 5.4 14.2 8.714.0
2017-Jun-18 05:30N 49°43' W 124°43'815.8
2017-Jun-18 05:00N 49°39' W 124°33'917.0
2017-Jun-18 04:29N 49°34' W 124°21'1317.1
2017-Jun-18 03:42N 49°27' W 124°04'417.2
2017-Jun-18 03:29N 49°26' W 123°58'917.6
2017-Jun-18 03:00N 49°23' W 123°46'83244.9
2017-Jun-18 03:00N 49°18' W 123°36'3 6.6 100 / 231019.2 5.4 14.2 8.716.0
2017-Jun-18 02:30N 49°21' W 123°33'917.3
2017-Jun-18 02:00N 49°19' W 123°20'815.4
2017-Jun-18 01:31N 49°19' W 123°08'2 3.4
2017-Jun-18 00:59N 49°17' W 123°06'0 0.0
2017-Jun-18 00:29N 49°17' W 123°06'0 0.0
2017-Jun-17 23:59N 49°17' W 123°06'0 0.0
2017-Jun-17 23:28N 49°17' W 123°06'0 0.0
2017-Jun-17 22:58N 49°17' W 123°06'0 0.0
2017-Jun-17 22:28N 49°17' W 123°06'0 0.0
2017-Jun-17 21:58N 49°17' W 123°06'0 0.0
2017-Jun-17 21:27N 49°17' W 123°06'0 0.0
2017-Jun-17 21:00N 49°17' W 123°06'0 0.0
2017-Jun-17 20:30N 49°17' W 123°06'0 0.0
2017-Jun-17 20:00N 49°17' W 123°06'0 0.0
2017-Jun-17 19:30N 49°17' W 123°06'0 0.0
2017-Jun-17 18:59N 49°17' W 123°06'0 0.0
2017-Jun-17 18:29N 49°17' W 123°06'0 0.0
2017-Jun-17 17:59N 49°17' W 123°06'0 0.0
2017-Jun-17 17:29N 49°17' W 123°06'0 0.0
2017-Jun-17 16:59N 49°17' W 123°06'0 0.0
2017-Jun-17 16:28N 49°17' W 123°06'0 0.0
2017-Jun-17 15:58N 49°17' W 123°06'0 0.0
2017-Jun-17 15:29N 49°17' W 123°06'0 0.0
2017-Jun-17 14:58N 49°17' W 123°06'0 0.0
2017-Jun-17 14:30N 49°17' W 123°06'0 0.2
2017-Jun-17 13:30N 49°17' W 123°06'2 3.2
2017-Jun-17 13:00N 49°19' W 123°08'611.2
2017-Jun-17 12:30N 49°19' W 123°16'714.4
2017-Jun-17 12:00N 49°19' W 123°27'714.5
2017-Jun-17 11:30N 49°21' W 123°38'714.5
2017-Jun-17 11:00N 49°24' W 123°48'714.3
2017-Jun-17 10:30N 49°26' W 123°59'1315.0
2017-Jun-17 09:37N 49°32' W 124°17'216.6
2017-Jun-17 09:30N 49°33' W 124°20'816.9
2017-Jun-17 09:00N 49°38' W 124°31'917.1
2017-Jun-17 08:30N 49°42' W 124°42'817.2
2017-Jun-17 08:00N 49°48' W 124°52'918.4
2017-Jun-17 07:30N 49°54' W 125°03'917.2
2017-Jun-17 07:00N 49°60' W 125°12'816.5
2017-Jun-17 06:31N 50°07' W 125°19'510.6
2017-Jun-17 06:00N 50°12' W 125°22'611.8
2017-Jun-17 05:30N 50°17' W 125°25'611.3
2017-Jun-17 05:00N 50°21' W 125°32'11113.3
2017-Jun-16 20:40N 51°09' W 128°10'212.5
2017-Jun-16 20:30N 51°10' W 128°13'613.0
2017-Jun-16 20:00N 51°13' W 128°21'713.7
2017-Jun-16 19:30N 51°19' W 128°28'714.3
2017-Jun-16 19:00N 51°24' W 128°35'714.1
2017-Jun-16 18:30N 51°30' W 128°42'713.7
2017-Jun-16 18:00N 51°36' W 128°48'713.8
2017-Jun-16 17:30N 51°41' W 128°55'713.9
2017-Jun-16 17:00N 51°47' W 129°01'713.7
2017-Jun-16 16:30N 51°52' W 129°08'713.5
2017-Jun-16 16:00N 51°58' W 129°14'713.7
2017-Jun-16 15:30N 52°03' W 129°21'813.9
2017-Jun-16 14:56N 52°10' W 129°28'12324.9
2017-Jun-16 10:00N 54°00' W 131°00'6611.0 040 / 341006.6 2.2 10.8 7.011.0
2017-Jun-16 04:00N 55°06' W 131°06'42 3.2 340 / 221003.6 2.2 11.810.212.0
2017-Jun-15 15:00N 55°30' W 132°06'9111.4 270 / 311003.6 5.4 8.6 6.2 8.0
2017-Jun-15 07:00N 56°18' W 134°24'7625.2 340 / 261010.7 5.4 18.2-22.1 9.0
2017-Jun-15 04:00N 57°30' W 133°42'102 4.8 020 / 271017.8 5.4 12.2 7.712.0
2017-Jun-14 07:00N 59°00' W 135°12'   340 / 171014.910.8 10.8 7.711.0

Dump ship's entire track history